createdAt,value
2022-10-16T00:00:23.818Z,100747.63
2022-10-16T00:05:25.434Z,100752.38
2022-10-16T00:10:27.002Z,100752.19
2022-10-16T00:15:28.614Z,100738.50
2022-10-16T00:20:32.216Z,100737.72
2022-10-16T00:25:33.952Z,100736.13
2022-10-16T00:30:39.685Z,100734.41
2022-10-16T00:35:41.197Z,100736.03
2022-10-16T00:40:43.159Z,100739.81
2022-10-16T00:45:44.682Z,100747.97
2022-10-16T00:50:46.384Z,100742.50
2022-10-16T00:55:48.694Z,100722.53
2022-10-16T01:00:50.234Z,100720.34
2022-10-16T01:06:04.683Z,100718.84
2022-10-16T01:11:26.752Z,100723.47
2022-10-16T01:16:39.845Z,100744.63
2022-10-16T01:21:45.838Z,100749.09
2022-10-16T01:27:09.080Z,100757.03
2022-10-16T01:32:37.321Z,100751.72
2022-10-16T01:37:49.946Z,100737.63
2022-10-16T01:42:56.529Z,100715.22
2022-10-16T01:48:01.477Z,100732.50
2022-10-16T01:53:05.908Z,100744.50
2022-10-16T01:58:11.118Z,100741.47
2022-10-16T02:03:15.912Z,100770.84
2022-10-16T02:08:17.626Z,100751.28
2022-10-16T02:13:27.293Z,100745.53
2022-10-16T02:18:31.501Z,100739.75
2022-10-16T02:23:55.419Z,100766.31
2022-10-16T02:29:02.824Z,100763.84
2022-10-16T02:34:06.796Z,100769.41
2022-10-16T02:39:09.513Z,100767.81
2022-10-16T02:44:11.013Z,100756.94
2022-10-16T02:49:12.623Z,100756.94
2022-10-16T02:54:14.283Z,100766.88
2022-10-16T02:59:15.803Z,100775.94
2022-10-16T03:04:17.346Z,100771.22
2022-10-16T03:09:18.860Z,100771.38
2022-10-16T03:14:20.448Z,100781.66
2022-10-16T03:19:22.200Z,100810.69
2022-10-16T03:24:23.764Z,100802.72
2022-10-16T03:29:26.717Z,100808.66
2022-10-16T03:34:28.915Z,100807.66
2022-10-16T03:39:30.481Z,100814.63
2022-10-16T03:44:32.000Z,100820.59
2022-10-16T03:49:33.582Z,100821.66
2022-10-16T03:54:35.209Z,100822.50
2022-10-16T03:59:36.732Z,100828.47
2022-10-16T04:04:38.272Z,100809.09
2022-10-16T04:09:39.817Z,100811.66
2022-10-16T04:14:41.383Z,100833.56
2022-10-16T04:19:43.042Z,100830.88
2022-10-16T04:24:44.538Z,100844.72
2022-10-16T04:29:46.088Z,100832.59
2022-10-16T04:34:47.626Z,100841.28
2022-10-16T04:39:49.213Z,100865.38
2022-10-16T04:44:50.749Z,100873.59
2022-10-16T04:49:52.299Z,100847.19
2022-10-16T04:54:54.964Z,100852.13
2022-10-16T04:59:56.508Z,100860.69
2022-10-16T05:04:58.038Z,100859.50
2022-10-16T05:09:59.598Z,100885.59
2022-10-16T05:15:01.186Z,100870.63
2022-10-16T05:20:03.234Z,100900.22
2022-10-16T05:25:05.324Z,100907.09
2022-10-16T05:30:09.950Z,100920.28
2022-10-16T05:35:13.898Z,100915.66
2022-10-16T05:40:15.837Z,100919.25
2022-10-16T05:45:17.473Z,100912.06
2022-10-16T05:50:19.186Z,100920.09
2022-10-16T05:55:20.720Z,100910.16
2022-10-16T06:00:22.242Z,100917.84
2022-10-16T06:05:23.806Z,100919.94
2022-10-16T06:10:25.337Z,100930.28
2022-10-16T06:15:26.916Z,100925.75
2022-10-16T06:20:28.567Z,100936.66
2022-10-16T06:25:30.189Z,100934.94
2022-10-16T06:30:31.723Z,100939.75
2022-10-16T06:35:33.339Z,100944.78
2022-10-16T06:40:34.848Z,100956.19
2022-10-16T06:45:36.500Z,100958.28
2022-10-16T06:50:38.093Z,100980.50
2022-10-16T06:55:40.026Z,100986.31
2022-10-16T07:00:41.513Z,100991.31
2022-10-16T07:05:43.603Z,101033.00
2022-10-16T07:10:45.115Z,101032.69
2022-10-16T07:15:46.658Z,101057.81
2022-10-16T07:20:48.279Z,101040.69
2022-10-16T07:25:55.479Z,101053.88
2022-10-16T07:30:56.999Z,101079.03
2022-10-16T07:35:58.823Z,101083.41
2022-10-16T07:41:02.814Z,101094.25
2022-10-16T07:46:06.508Z,101111.53
2022-10-16T07:51:08.667Z,101126.59
2022-10-16T07:56:10.912Z,101111.53
2022-10-16T08:01:15.426Z,101113.72
2022-10-16T08:06:20.727Z,101132.44
2022-10-16T08:11:25.196Z,101125.91
2022-10-16T08:16:26.810Z,101143.31
2022-10-16T08:21:28.349Z,101149.81
2022-10-16T08:26:29.927Z,101151.88
2022-10-16T08:31:31.508Z,101165.88
2022-10-16T08:36:33.463Z,101181.56
2022-10-16T08:41:54.804Z,101183.81
2022-10-16T08:47:12.684Z,101210.44
2022-10-16T08:52:15.072Z,101200.03
2022-10-16T08:57:24.309Z,101223.56
2022-10-16T09:02:32.711Z,101208.88
2022-10-16T09:13:18.081Z,101249.31
2022-10-16T09:18:41.785Z,101267.16
2022-10-16T09:23:44.491Z,101256.50
2022-10-16T09:28:46.339Z,101262.00
2022-10-16T09:33:58.846Z,101273.75
2022-10-16T09:39:08.421Z,101272.41
2022-10-16T09:44:29.955Z,101296.94
2022-10-16T09:49:31.636Z,101294.84
2022-10-16T09:54:37.691Z,101300.72
2022-10-16T09:59:48.038Z,101290.56
2022-10-16T10:04:55.002Z,101314.16
2022-10-16T10:09:58.349Z,101300.91
2022-10-16T10:15:06.802Z,101322.09
2022-10-16T10:20:39.174Z,101338.56
2022-10-16T10:25:50.652Z,101350.81
2022-10-16T10:31:25.335Z,101360.75
2022-10-16T10:36:30.050Z,101370.50
2022-10-16T10:41:31.997Z,101374.97
2022-10-16T10:46:45.542Z,101376.44
2022-10-16T10:52:16.370Z,101391.94
2022-10-16T10:57:30.687Z,101397.66
2022-10-16T11:03:10.062Z,101411.06
2022-10-16T11:08:22.872Z,101411.53
2022-10-16T11:13:44.547Z,101400.72
2022-10-16T11:18:55.656Z,101384.31
2022-10-16T11:24:18.177Z,101412.16
2022-10-16T11:29:29.974Z,101410.38
2022-10-16T11:34:41.215Z,101428.41
2022-10-16T11:39:45.007Z,101412.81
2022-10-16T11:45:07.543Z,101444.97
2022-10-16T11:50:39.806Z,101452.00
2022-10-16T11:55:46.200Z,101437.31
2022-10-16T12:01:05.753Z,101449.03
2022-10-16T12:06:28.501Z,101467.19
2022-10-16T12:11:30.008Z,101464.19
2022-10-16T12:16:31.594Z,101457.53
2022-10-16T12:21:33.256Z,101468.59
2022-10-16T12:26:39.800Z,101473.94
2022-10-16T12:31:57.488Z,101476.53
2022-10-16T12:37:13.661Z,101468.41
2022-10-16T12:42:27.484Z,101478.19
2022-10-16T12:47:32.303Z,101492.88
2022-10-16T12:52:40.748Z,101478.13
2022-10-16T12:57:44.862Z,101491.03
2022-10-16T13:02:55.653Z,101494.28
2022-10-16T13:08:19.958Z,101497.66
2022-10-16T13:13:47.213Z,101509.25
2022-10-16T13:19:16.999Z,101514.91
2022-10-16T13:24:46.091Z,101522.44
2022-10-16T13:29:54.456Z,101512.34
2022-10-16T13:34:56.693Z,101532.06
2022-10-16T13:40:21.689Z,101512.38
2022-10-16T13:45:26.485Z,101531.47
2022-10-16T13:50:28.030Z,101530.00
2022-10-16T13:55:29.769Z,101536.91
2022-10-16T14:00:32.762Z,101549.34
2022-10-16T14:05:35.375Z,101571.00
2022-10-16T14:10:37.013Z,101574.91
2022-10-16T14:15:39.094Z,101565.19
2022-10-16T14:20:40.660Z,101567.78
2022-10-16T14:25:42.204Z,101574.16
2022-10-16T14:30:53.261Z,101586.78
2022-10-16T14:36:05.967Z,101582.97
2022-10-16T14:41:08.395Z,101563.72
2022-10-16T14:46:15.795Z,101579.25
2022-10-16T14:51:21.111Z,101583.66
2022-10-16T14:56:25.552Z,101572.97
2022-10-16T15:01:27.191Z,101565.38
2022-10-16T15:06:28.845Z,101591.19
2022-10-16T15:11:33.523Z,101593.78
2022-10-16T15:16:35.119Z,101584.94
2022-10-16T15:21:36.772Z,101568.66
2022-10-16T15:26:38.321Z,101590.31
2022-10-16T15:31:40.091Z,101600.50
2022-10-16T15:36:41.706Z,101604.88
2022-10-16T15:41:43.796Z,101590.50
2022-10-16T15:46:45.401Z,101577.66
2022-10-16T15:51:47.316Z,101583.19
2022-10-16T15:56:48.827Z,101587.19
2022-10-16T16:01:50.403Z,101608.31
2022-10-16T16:06:52.000Z,101613.13
2022-10-16T16:11:53.758Z,101623.63
2022-10-16T16:16:56.383Z,101607.56
2022-10-16T16:21:57.889Z,101599.69
2022-10-16T16:26:59.471Z,101602.13
2022-10-16T16:32:01.706Z,101602.66
2022-10-16T16:37:03.615Z,101621.34
2022-10-16T16:42:07.242Z,101618.53
2022-10-16T16:47:08.824Z,101632.75
2022-10-16T16:52:10.412Z,101640.28
2022-10-16T16:57:11.948Z,101634.41
2022-10-16T17:02:13.512Z,101621.91
2022-10-16T17:07:15.053Z,101631.53
2022-10-16T17:12:16.638Z,101646.44
2022-10-16T17:17:18.202Z,101643.50
2022-10-16T17:22:20.469Z,101662.03
2022-10-16T17:27:22.816Z,101677.16
2022-10-16T17:32:24.598Z,101668.91
2022-10-16T17:37:26.459Z,101666.28
2022-10-16T17:42:28.330Z,101689.97
2022-10-16T17:47:30.184Z,101667.94
2022-10-16T17:52:31.750Z,101678.59
2022-10-16T17:57:33.295Z,101667.09
2022-10-16T18:02:34.917Z,101676.03
2022-10-16T18:07:36.888Z,101690.41
2022-10-16T18:12:38.524Z,101671.03
2022-10-16T18:17:40.140Z,101703.13
2022-10-16T18:22:41.690Z,101675.66
2022-10-16T18:27:43.256Z,101668.50
2022-10-16T18:32:44.814Z,101680.34
2022-10-16T18:37:46.395Z,101717.91
2022-10-16T18:42:49.628Z,101696.63
2022-10-16T18:47:51.226Z,101691.50
2022-10-16T18:52:52.760Z,101686.00
2022-10-16T18:57:55.284Z,101691.84
2022-10-16T19:02:56.830Z,101702.81
2022-10-16T19:07:58.640Z,101734.03
2022-10-16T19:13:00.201Z,101712.38
2022-10-16T19:18:01.737Z,101714.47
2022-10-16T19:23:04.164Z,101733.03
2022-10-16T19:28:08.719Z,101702.50
2022-10-16T19:33:10.242Z,101702.19
2022-10-16T19:38:11.824Z,101692.75
2022-10-16T19:43:13.340Z,101687.97
2022-10-16T19:48:15.206Z,101688.56
2022-10-16T19:53:16.809Z,101696.47
2022-10-16T19:58:18.411Z,101692.31
2022-10-16T20:03:20.212Z,101710.53
2022-10-16T20:08:22.772Z,101671.44
2022-10-16T20:13:24.321Z,101692.38
2022-10-16T20:18:25.899Z,101664.56
2022-10-16T20:23:27.574Z,101654.44
2022-10-16T20:28:29.202Z,101654.78
2022-10-16T20:33:30.810Z,101669.88
2022-10-16T20:38:32.418Z,101663.00
2022-10-16T20:43:34.524Z,101656.00
2022-10-16T20:48:37.259Z,101679.47
2022-10-16T20:53:39.590Z,101691.66
2022-10-16T20:58:42.099Z,101690.47
2022-10-16T21:03:45.077Z,101714.84
2022-10-16T21:08:46.695Z,101710.19
2022-10-16T21:13:49.054Z,101695.78
2022-10-16T21:18:50.997Z,101682.41
2022-10-16T21:23:53.170Z,101691.88
2022-10-16T21:29:06.889Z,101674.88
2022-10-16T21:34:08.958Z,101660.78
2022-10-16T21:39:16.668Z,101682.75
2022-10-16T21:44:20.112Z,101653.09
2022-10-16T21:49:21.652Z,101664.03
2022-10-16T21:54:24.213Z,101642.97
2022-10-16T21:59:25.773Z,101634.72
2022-10-16T22:04:27.291Z,101637.81
2022-10-16T22:09:28.901Z,101624.41
2022-10-16T22:14:30.461Z,101616.69
2022-10-16T22:19:32.032Z,101633.53
2022-10-16T22:24:33.637Z,101631.44
2022-10-16T22:29:35.214Z,101641.06
2022-10-16T22:34:36.765Z,101635.41
2022-10-16T22:39:38.311Z,101636.44
2022-10-16T22:44:39.827Z,101630.78
2022-10-16T22:49:41.401Z,101617.22
2022-10-16T22:54:42.946Z,101640.88
2022-10-16T22:59:44.483Z,101625.28
2022-10-16T23:04:46.022Z,101618.75
2022-10-16T23:09:47.545Z,101624.38
2022-10-16T23:14:49.076Z,101614.63
2022-10-16T23:19:50.607Z,101603.13
2022-10-16T23:24:52.126Z,101608.63
2022-10-16T23:29:53.711Z,101612.06
2022-10-16T23:34:55.270Z,101611.38
2022-10-16T23:39:56.778Z,101628.69
2022-10-16T23:44:58.310Z,101636.25
2022-10-16T23:49:59.871Z,101622.72
2022-10-16T23:55:01.418Z,101618.75
